Time;durP1;ratioP1;P1;durP2;ratioP2;P2;SDS_P1;SDS_P2;PMS_P1;PMS_P2;Temp;Humidity;BMP_temperature;BMP_pressure;BME280_temperature;BME280_humidity;BME280_pressure;Samples;Min_cycle;Max_cycle;Signal;HPM_P1;HPM_P2
2022/01/16 00:00:18;;;;;;;110.32;40.72;;;;;;;-145.76;100.00;65039.31;4924151;28;20129;-71
2022/01/16 00:05:22;;;;;;;108.50;42.10;;;;;;;-145.76;100.00;65039.31;4926585;28;20031;-71
2022/01/16 00:07:48;;;;;;;101.32;40.70;;;;;;;-145.76;100.00;65039.31;4908384;28;20043;-71
2022/01/16 00:10:16;;;;;;;101.20;39.65;;;;;;;-145.76;100.00;65039.31;4925127;28;20109;-71
2022/01/16 00:12:47;;;;;;;106.38;41.47;;;;;;;-145.76;100.00;65039.31;4920598;28;20061;-72
2022/01/16 00:15:13;;;;;;;114.93;42.70;;;;;;;-145.76;100.00;65039.31;4916637;28;20070;-71
2022/01/16 00:17:48;;;;;;;116.43;44.15;;;;;;;-145.76;100.00;65039.31;4925886;28;23961;-71
2022/01/16 00:20:14;;;;;;;128.80;44.13;;;;;;;-145.76;100.00;65039.31;4911121;28;20063;-71
2022/01/16 00:22:41;;;;;;;116.20;42.40;;;;;;;-145.76;100.00;65039.31;4927184;28;20054;-72
2022/01/16 00:25:07;;;;;;;112.88;41.22;;;;;;;-145.76;100.00;65039.31;4913800;28;20053;-72
2022/01/16 00:27:33;;;;;;;118.65;42.53;;;;;;;-145.76;100.00;65039.31;4926547;28;20963;-71
2022/01/16 00:29:58;;;;;;;120.22;41.92;;;;;;;-145.76;100.00;65039.31;4925192;28;20117;-71
2022/01/16 00:32:24;;;;;;;115.50;42.03;;;;;;;-145.76;100.00;65039.31;4908815;28;20054;-71
2022/01/16 00:34:49;;;;;;;112.88;42.60;;;;;;;-145.76;100.00;65039.31;4927056;28;20035;-71
2022/01/16 00:37:14;;;;;;;108.22;39.90;;;;;;;-145.76;100.00;65039.31;4909349;28;20086;-71
2022/01/16 00:39:40;;;;;;;110.07;41.67;;;;;;;-145.76;100.00;65039.31;4926878;28;20038;-71
2022/01/16 00:42:06;;;;;;;119.82;42.15;;;;;;;-145.76;100.00;65039.31;4907727;28;20050;-71
2022/01/16 00:44:31;;;;;;;116.05;40.72;;;;;;;-145.76;100.00;65039.31;4908553;28;20109;-71
2022/01/16 00:46:56;;;;;;;110.43;40.15;;;;;;;-145.76;100.00;65039.31;4925324;28;20039;-71
2022/01/16 00:49:22;;;;;;;97.55;39.40;;;;;;;-145.76;100.00;65039.31;4910106;28;20093;-71
2022/01/16 00:51:47;;;;;;;105.00;39.97;;;;;;;-145.76;100.00;65039.31;4925758;28;20122;-71
2022/01/16 00:54:13;;;;;;;105.03;39.17;;;;;;;-145.76;100.00;65039.31;4940010;28;20035;-72
2022/01/16 00:56:38;;;;;;;95.28;36.67;;;;;;;-145.76;100.00;65039.31;4910289;28;20055;-72
2022/01/16 00:59:04;;;;;;;113.78;38.95;;;;;;;-145.76;100.00;65039.31;4926584;28;20053;-71
2022/01/16 01:01:29;;;;;;;109.57;39.53;;;;;;;-145.76;100.00;65039.31;4909515;28;20055;-71
2022/01/16 01:03:57;;;;;;;109.13;39.85;;;;;;;-145.76;100.00;65039.31;4926229;28;20043;-72
2022/01/16 01:06:23;;;;;;;100.47;39.67;;;;;;;-145.76;100.00;65039.31;4926299;28;20054;-72
2022/01/16 01:08:48;;;;;;;94.47;37.03;;;;;;;-145.76;100.00;65039.31;4891458;28;20082;-72
2022/01/16 01:11:17;;;;;;;97.72;37.38;;;;;;;-145.76;100.00;65039.31;4922734;28;20042;-72
2022/01/16 01:14:07;;;;;;;95.10;35.60;;;;;;;-145.76;100.00;65039.31;4908252;28;22458;-71
2022/01/16 01:17:09;;;;;;;104.90;40.45;;;;;;;-145.76;100.00;65039.31;4919985;28;20035;-72
2022/01/16 01:19:36;;;;;;;104.75;39.35;;;;;;;-145.76;100.00;65039.31;4915466;28;20050;-71
2022/01/16 01:22:04;;;;;;;102.57;39.67;;;;;;;-145.76;100.00;65039.31;4920639;28;20546;-72
2022/01/16 01:24:31;;;;;;;118.07;44.13;;;;;;;-145.76;100.00;65039.31;4923728;28;20030;-72
2022/01/16 01:29:28;;;;;;;98.03;40.58;;;;;;;-145.76;100.00;65039.31;4922891;28;20035;-72
2022/01/16 01:31:54;;;;;;;108.45;40.58;;;;;;;-145.76;100.00;65039.31;4909273;28;20066;-72
2022/01/16 01:34:19;;;;;;;108.57;41.50;;;;;;;-145.76;100.00;65039.31;4923268;28;20042;-72
2022/01/16 01:36:48;;;;;;;103.43;40.85;;;;;;;-145.76;100.00;65039.31;4922816;28;20045;-71
2022/01/16 01:39:15;;;;;;;97.32;40.28;;;;;;;-145.76;100.00;65039.31;4910202;28;20612;-71
2022/01/16 01:41:41;;;;;;;101.20;40.65;;;;;;;-145.76;100.00;65039.31;4921832;28;22338;-71
2022/01/16 01:52:18;;;;;;;118.85;43.10;;;;;;;-145.76;100.00;65039.31;4924134;28;19980;-72
2022/01/16 01:54:43;;;;;;;108.07;43.08;;;;;;;-145.76;100.00;65039.31;4924421;28;20035;-72
2022/01/16 01:57:10;;;;;;;104.32;42.20;;;;;;;-145.76;100.00;65039.31;4892198;28;20047;-71
2022/01/16 01:59:39;;;;;;;120.63;45.85;;;;;;;-145.76;100.00;65039.31;4924690;28;20059;-71
2022/01/16 02:02:06;;;;;;;108.28;43.90;;;;;;;-145.76;100.00;65039.31;4908248;28;20047;-72
2022/01/16 02:04:31;;;;;;;115.43;43.47;;;;;;;-145.76;100.00;65039.31;4905964;28;20034;-72
2022/01/16 02:06:57;;;;;;;129.13;47.95;;;;;;;-145.76;100.00;65039.31;4922671;28;20022;-71
2022/01/16 02:09:22;;;;;;;126.85;44.83;;;;;;;-145.76;100.00;65039.31;4907518;28;20507;-71
2022/01/16 02:11:48;;;;;;;120.43;45.08;;;;;;;-145.76;100.00;65039.31;4924987;28;20037;-70
2022/01/16 02:14:27;;;;;;;127.32;47.58;;;;;;;-145.76;100.00;65039.31;4907675;28;21099;-70
2022/01/16 02:28:15;;;;;;;127.38;47.13;;;;;;;-145.76;100.00;65039.31;4913233;28;20062;-70
2022/01/16 02:31:00;;;;;;;124.97;46.47;;;;;;;-145.76;100.00;65039.31;4924380;28;21106;-70
2022/01/16 02:36:29;;;;;;;131.40;48.88;;;;;;;-145.76;100.00;65039.31;4924467;28;20160;-70
2022/01/16 02:39:10;;;;;;;132.07;49.05;;;;;;;-145.76;100.00;65039.31;4908994;28;20054;-70
2022/01/16 02:41:36;;;;;;;133.15;47.80;;;;;;;-145.76;100.00;65039.31;4924261;28;20030;-70
2022/01/16 02:44:11;;;;;;;140.07;50.42;;;;;;;-145.76;100.00;65039.31;4909141;28;21074;-70
2022/01/16 02:46:37;;;;;;;138.90;51.72;;;;;;;-145.76;100.00;65039.31;4922403;28;20780;-70
2022/01/16 02:49:02;;;;;;;145.93;49.83;;;;;;;-145.76;100.00;65039.31;4922246;28;20046;-70
2022/01/16 02:51:28;;;;;;;135.80;49.65;;;;;;;-145.76;100.00;65039.31;4905361;28;20058;-72
2022/01/16 02:53:54;;;;;;;131.65;47.55;;;;;;;-145.76;100.00;65039.31;4922090;28;20039;-72
2022/01/16 02:56:20;;;;;;;130.02;48.47;;;;;;;-145.76;100.00;65039.31;4908229;28;20142;-72
2022/01/16 02:58:46;;;;;;;145.95;50.38;;;;;;;-145.76;100.00;65039.31;4924017;28;20043;-72
2022/01/16 03:01:13;;;;;;;137.35;49.70;;;;;;;-145.76;100.00;65039.31;4922171;28;20087;-72
2022/01/16 03:03:38;;;;;;;136.95;49.80;;;;;;;-145.76;100.00;65039.31;4892342;28;20158;-74
2022/01/16 03:06:04;;;;;;;148.90;51.35;;;;;;;-145.76;100.00;65039.31;4922980;28;22449;-74
2022/01/16 03:08:29;;;;;;;141.18;48.75;;;;;;;-145.76;100.00;65039.31;4910656;28;20054;-74
2022/01/16 03:13:21;;;;;;;151.85;53.30;;;;;;;-145.76;100.00;65039.31;4923778;28;20112;-74
2022/01/16 03:15:50;;;;;;;171.07;55.25;;;;;;;-145.76;100.00;65039.31;4906710;28;20062;-71
2022/01/16 03:23:25;;;;;;;177.02;55.88;;;;;;;-145.76;100.00;65039.31;4925344;28;20047;-72
2022/01/16 03:25:51;;;;;;;172.10;54.28;;;;;;;-145.76;100.00;65039.31;4920429;28;20114;-74
2022/01/16 03:28:17;;;;;;;168.70;53.58;;;;;;;-145.76;100.00;65039.31;4918324;28;20047;-71
2022/01/16 03:30:43;;;;;;;170.15;53.85;;;;;;;-145.76;100.00;65039.31;4927226;28;20142;-72
2022/01/16 03:33:09;;;;;;;181.82;56.13;;;;;;;-145.76;100.00;65039.31;4912046;28;20929;-72
2022/01/16 03:35:35;;;;;;;180.93;58.67;;;;;;;-145.76;100.00;65039.31;4910404;28;20408;-72
2022/01/16 03:38:00;;;;;;;198.82;59.83;;;;;;;-145.76;100.00;65039.31;4919704;28;20030;-73
2022/01/16 03:40:26;;;;;;;199.48;61.78;;;;;;;-145.76;100.00;65039.31;4916795;28;20058;-73
2022/01/16 03:42:51;;;;;;;180.05;59.90;;;;;;;-145.76;100.00;65039.31;4940012;28;21087;-73
2022/01/16 03:45:17;;;;;;;183.32;58.38;;;;;;;-145.76;100.00;65039.31;4912338;28;20053;-73
2022/01/16 03:47:42;;;;;;;182.82;57.65;;;;;;;-145.76;100.00;65039.31;4932090;28;20642;-73
2022/01/16 03:50:09;;;;;;;193.57;61.80;;;;;;;-145.76;100.00;65039.31;4929071;28;20065;-73
2022/01/16 03:52:34;;;;;;;188.63;58.28;;;;;;;-145.76;100.00;65039.31;4929575;28;20058;-73
2022/01/16 03:55:00;;;;;;;184.80;57.92;;;;;;;-145.76;100.00;65039.31;4936294;28;20046;-73
2022/01/16 03:57:25;;;;;;;199.07;56.80;;;;;;;-145.76;100.00;65039.31;4917899;28;20274;-73
2022/01/16 03:59:51;;;;;;;204.63;58.00;;;;;;;-145.76;100.00;65039.31;4929092;28;20062;-73
2022/01/16 04:02:16;;;;;;;191.20;59.63;;;;;;;-145.76;100.00;65039.31;4921676;28;20178;-73
2022/01/16 04:04:42;;;;;;;205.68;61.30;;;;;;;-145.76;100.00;65039.31;4930936;28;20047;-73
2022/01/16 04:07:10;;;;;;;211.43;61.47;;;;;;;-145.76;100.00;65039.31;4926090;28;20062;-73
2022/01/16 04:09:37;;;;;;;196.20;57.50;;;;;;;-145.76;100.00;65039.31;4911031;28;20046;-73
2022/01/16 04:12:03;;;;;;;193.10;58.60;;;;;;;-145.76;100.00;65039.31;4892375;28;21124;-73
2022/01/16 04:17:16;;;;;;;;;;;;;;;-145.76;100.00;65039.31;4931992;28;20043;-73
2022/01/16 04:19:42;;;;;;;205.15;60.28;;;;;;;-145.76;100.00;65039.31;4943792;28;19922;-73
2022/01/16 04:22:08;;;;;;;203.30;61.10;;;;;;;-145.76;100.00;65039.31;4911248;28;20069;-73
2022/01/16 04:24:34;;;;;;;198.55;59.85;;;;;;;-145.76;100.00;65039.31;4926765;28;20054;-73
2022/01/16 04:26:59;;;;;;;194.02;59.72;;;;;;;-145.76;100.00;65039.31;4895498;28;20055;-73
2022/01/16 04:29:25;;;;;;;206.25;58.90;;;;;;;-145.76;100.00;65039.31;4927187;28;20046;-73
2022/01/16 04:31:50;;;;;;;203.57;60.03;;;;;;;-145.76;100.00;65039.31;4925022;28;20066;-73
2022/01/16 04:34:16;;;;;;;210.73;61.75;;;;;;;-145.76;100.00;65039.31;4912626;28;20050;-73
2022/01/16 04:36:42;;;;;;;208.60;59.47;;;;;;;-145.76;100.00;65039.31;4908943;28;20085;-73
2022/01/16 04:39:13;;;;;;;214.20;59.25;;;;;;;-145.76;100.00;65039.31;4893811;28;20043;-73
2022/01/16 04:44:22;;;;;;;;;;;;;;;-145.76;100.00;65039.31;4920802;28;20642;-73
2022/01/16 04:46:47;;;;;;;195.07;57.22;;;;;;;-145.76;100.00;65039.31;4916780;28;19922;-73
2022/01/16 04:49:13;;;;;;;208.65;58.88;;;;;;;-145.76;100.00;65039.31;4923406;28;20062;-73
2022/01/16 04:51:38;;;;;;;205.32;59.15;;;;;;;-145.76;100.00;65039.31;4912472;28;20055;-73
2022/01/16 04:54:04;;;;;;;205.02;60.10;;;;;;;-145.76;100.00;65039.31;4924407;28;20463;-72
2022/01/16 04:56:30;;;;;;;211.68;59.72;;;;;;;-145.76;100.00;65039.31;4918898;28;20047;-73
2022/01/16 04:58:56;;;;;;;206.35;59.17;;;;;;;-145.76;100.00;65039.31;4915235;28;20057;-73
2022/01/16 05:01:22;;;;;;;211.95;61.22;;;;;;;-145.76;100.00;65039.31;4908304;28;20103;-74
2022/01/16 05:03:47;;;;;;;194.95;59.35;;;;;;;-145.76;100.00;65039.31;4909350;28;20081;-74
2022/01/16 05:06:14;;;;;;;211.02;59.60;;;;;;;-145.76;100.00;65039.31;4924964;28;20034;-73
2022/01/16 05:08:39;;;;;;;221.55;60.65;;;;;;;-145.76;100.00;65039.31;4917980;28;20056;-73
2022/01/16 05:11:06;;;;;;;202.88;60.75;;;;;;;-145.76;100.00;65039.31;4915439;28;20051;-73
2022/01/16 05:18:49;;;;;;;194.30;56.65;;;;;;;-145.76;100.00;65039.31;4927075;28;20031;-74
2022/01/16 05:21:15;;;;;;;205.02;57.50;;;;;;;-145.76;100.00;65039.31;4910175;28;20043;-74
2022/01/16 05:23:43;;;;;;;201.48;58.15;;;;;;;-145.76;100.00;65039.31;4925237;28;20874;-73
2022/01/16 05:26:10;;;;;;;208.15;56.97;;;;;;;-145.76;100.00;65039.31;4927875;28;20110;-73
2022/01/16 05:28:35;;;;;;;204.48;60.63;;;;;;;-145.76;100.00;65039.31;4911302;28;20051;-73
2022/01/16 05:31:02;;;;;;;195.38;55.67;;;;;;;-145.76;100.00;65039.31;4929206;28;21099;-73
2022/01/16 05:33:27;;;;;;;207.77;58.85;;;;;;;-145.76;100.00;65039.31;4898700;28;20047;-74
2022/01/16 05:35:53;;;;;;;216.20;58.92;;;;;;;-145.76;100.00;65039.31;4937043;28;20518;-73
2022/01/16 05:38:18;;;;;;;206.43;56.10;;;;;;;-145.76;100.00;65039.31;4931424;28;20120;-74
2022/01/16 05:40:44;;;;;;;203.32;57.17;;;;;;;-145.76;100.00;65039.31;4916218;28;20210;-75
2022/01/16 05:43:10;;;;;;;217.48;59.53;;;;;;;-145.76;100.00;65039.31;4930568;28;20570;-74
2022/01/16 05:45:36;;;;;;;228.88;60.88;;;;;;;-145.76;100.00;65039.31;4911519;28;20055;-74
2022/01/16 05:48:01;;;;;;;204.32;58.08;;;;;;;-145.76;100.00;65039.31;4927793;28;20038;-73
2022/01/16 05:50:27;;;;;;;210.90;59.40;;;;;;;-145.76;100.00;65039.31;4923918;28;20069;-74
2022/01/16 05:52:52;;;;;;;214.93;56.92;;;;;;;-145.76;100.00;65039.31;4914693;28;20165;-74
2022/01/16 05:55:18;;;;;;;212.13;61.53;;;;;;;-145.76;100.00;65039.31;4926353;28;20062;-74
2022/01/16 05:57:44;;;;;;;207.40;60.53;;;;;;;-145.76;100.00;65039.31;4910844;28;20779;-74
2022/01/16 06:00:11;;;;;;;225.60;62.92;;;;;;;-145.76;100.00;65039.31;4924901;28;20051;-74
2022/01/16 06:02:37;;;;;;;201.50;59.33;;;;;;;-145.76;100.00;65039.31;4918767;28;20145;-74
2022/01/16 06:05:03;;;;;;;225.57;62.35;;;;;;;-145.76;100.00;65039.31;4916149;28;20054;-74
2022/01/16 06:07:29;;;;;;;217.82;62.90;;;;;;;-145.76;100.00;65039.31;4925714;28;20038;-73
2022/01/16 06:09:55;;;;;;;222.18;61.83;;;;;;;-145.76;100.00;65039.31;4908570;28;20043;-73
2022/01/16 06:12:20;;;;;;;229.05;61.97;;;;;;;-145.76;100.00;65039.31;4923373;28;20031;-73
2022/01/16 06:14:46;;;;;;;219.88;61.83;;;;;;;-145.76;100.00;65039.31;4916155;28;20610;-75
2022/01/16 06:17:11;;;;;;;195.00;59.58;;;;;;;-145.76;100.00;65039.31;4915706;28;20105;-74
2022/01/16 06:19:37;;;;;;;219.77;64.00;;;;;;;-145.76;100.00;65039.31;4926412;28;20159;-72
2022/01/16 06:22:02;;;;;;;216.85;60.38;;;;;;;-145.76;100.00;65039.31;4912294;28;20062;-72
2022/01/16 06:24:28;;;;;;;215.02;61.72;;;;;;;-145.76;100.00;65039.31;4930461;28;20035;-73
2022/01/16 06:26:53;;;;;;;221.88;63.78;;;;;;;-145.76;100.00;65039.31;4937797;28;20035;-73
2022/01/16 06:29:19;;;;;;;223.98;65.20;;;;;;;-145.76;100.00;65039.31;4932064;28;21133;-73
2022/01/16 06:31:45;;;;;;;226.50;63.65;;;;;;;-145.76;100.00;65039.31;4928424;28;20030;-73
2022/01/16 06:34:11;;;;;;;206.80;62.90;;;;;;;-145.76;100.00;65039.31;4914614;28;20055;-73
2022/01/16 06:36:37;;;;;;;225.13;64.18;;;;;;;-145.76;100.00;65039.31;4924967;28;20066;-74
2022/01/16 06:39:04;;;;;;;225.65;66.18;;;;;;;-145.76;100.00;65039.31;4915984;28;20054;-74
2022/01/16 06:41:30;;;;;;;222.43;63.70;;;;;;;-145.76;100.00;65039.31;4914082;28;20187;-74
2022/01/16 06:43:56;;;;;;;212.60;63.08;;;;;;;-145.76;100.00;65039.31;4906905;28;23800;-73
2022/01/16 06:46:21;;;;;;;215.80;64.07;;;;;;;-145.76;100.00;65039.31;4911836;28;20055;-73
2022/01/16 06:48:49;;;;;;;215.60;64.20;;;;;;;-145.76;100.00;65039.31;4923756;28;20205;-73
2022/01/16 06:51:18;;;;;;;237.65;67.50;;;;;;;-145.76;100.00;65039.31;4915159;28;20640;-73
2022/01/16 06:53:44;;;;;;;234.25;69.57;;;;;;;-145.76;100.00;65039.31;4913467;28;20051;-73
2022/01/16 06:56:09;;;;;;;215.07;66.93;;;;;;;-145.76;100.00;65039.31;4925190;28;20062;-73
2022/01/16 06:58:35;;;;;;;233.07;66.03;;;;;;;-145.76;100.00;65039.31;4908567;28;20704;-73
2022/01/16 07:01:01;;;;;;;211.98;64.25;;;;;;;-145.76;100.00;65039.31;4924838;28;22584;-72
2022/01/16 07:03:26;;;;;;;226.52;68.35;;;;;;;-145.76;100.00;65039.31;4922303;28;20047;-72
2022/01/16 07:05:52;;;;;;;208.68;64.57;;;;;;;-145.76;100.00;65039.31;4920137;28;21268;-74
2022/01/16 07:08:22;;;;;;;218.40;68.15;;;;;;;-145.76;100.00;65039.31;4926429;28;20157;-74
2022/01/16 07:10:48;;;;;;;221.80;68.43;;;;;;;-145.76;100.00;65039.31;4911007;28;20574;-74
2022/01/16 07:13:14;;;;;;;204.23;65.35;;;;;;;-145.76;100.00;65039.31;4923490;28;20104;-74
2022/01/16 07:15:39;;;;;;;215.70;67.88;;;;;;;-145.76;100.00;65039.31;4919905;28;20050;-74
2022/01/16 07:18:05;;;;;;;220.25;69.13;;;;;;;-145.76;100.00;65039.31;4915566;28;20073;-74
2022/01/16 07:20:30;;;;;;;197.57;64.75;;;;;;;-145.76;100.00;65039.31;4924091;28;20495;-74
2022/01/16 07:22:56;;;;;;;219.02;66.70;;;;;;;-145.76;100.00;65039.31;4910712;28;20070;-74
2022/01/16 07:25:21;;;;;;;222.13;67.55;;;;;;;-145.76;100.00;65039.31;4924061;28;20105;-74
2022/01/16 07:27:47;;;;;;;204.20;66.05;;;;;;;-145.76;100.00;65039.31;4918464;28;20079;-74
2022/01/16 07:30:12;;;;;;;201.30;69.75;;;;;;;-145.76;100.00;65039.31;4914648;28;20109;-73
2022/01/16 07:32:38;;;;;;;223.65;67.57;;;;;;;-145.76;100.00;65039.31;4926569;28;20146;-73
2022/01/16 07:35:05;;;;;;;215.18;67.93;;;;;;;-145.76;100.00;65039.31;4910062;28;20475;-73
2022/01/16 07:37:30;;;;;;;200.13;68.60;;;;;;;-145.76;100.00;65039.31;4925717;28;20149;-73
2022/01/16 07:39:55;;;;;;;216.15;70.18;;;;;;;-145.76;100.00;65039.31;4911049;28;20423;-74
2022/01/16 07:42:21;;;;;;;214.65;68.50;;;;;;;-145.76;100.00;65039.31;4925625;28;20648;-73
2022/01/16 07:44:46;;;;;;;225.38;68.38;;;;;;;-145.76;100.00;65039.31;4926836;28;20031;-73
2022/01/16 07:47:12;;;;;;;217.77;73.45;;;;;;;-145.76;100.00;65039.31;4911786;28;20038;-74
2022/01/16 07:49:37;;;;;;;205.85;67.28;;;;;;;-145.76;100.00;65039.31;4926157;28;20027;-74
2022/01/16 07:52:03;;;;;;;211.88;69.75;;;;;;;-145.76;100.00;65039.31;4912072;28;20050;-73
2022/01/16 07:54:28;;;;;;;215.88;69.35;;;;;;;-145.76;100.00;65039.31;4911931;28;20760;-74
2022/01/16 07:56:54;;;;;;;195.15;67.70;;;;;;;-145.76;100.00;65039.31;4926820;28;20029;-74
2022/01/16 07:59:19;;;;;;;201.18;66.63;;;;;;;-145.76;100.00;65039.31;4909317;28;20317;-74
2022/01/16 08:01:45;;;;;;;195.93;69.18;;;;;;;-145.76;100.00;65039.31;4925312;28;20066;-73
2022/01/16 08:04:10;;;;;;;217.50;71.18;;;;;;;-145.76;100.00;65039.31;4909741;28;20075;-73
2022/01/16 08:06:36;;;;;;;192.35;70.00;;;;;;;-145.76;100.00;65039.31;4922773;28;20141;-73
2022/01/16 08:09:02;;;;;;;199.45;69.88;;;;;;;-145.76;100.00;65039.31;4923987;28;20037;-73
2022/01/16 08:11:27;;;;;;;189.63;68.40;;;;;;;-145.76;100.00;65039.31;4909347;28;20046;-73
2022/01/16 08:13:53;;;;;;;197.57;71.18;;;;;;;-145.76;100.00;65039.31;4924402;28;20042;-73
2022/01/16 08:16:18;;;;;;;205.65;73.13;;;;;;;-145.76;100.00;65039.31;4909579;28;20043;-73
2022/01/16 08:18:44;;;;;;;189.05;69.72;;;;;;;-145.76;100.00;65039.31;4907867;28;21754;-73
2022/01/16 08:21:09;;;;;;;173.95;67.18;;;;;;;-145.76;100.00;65039.31;4923644;28;20038;-73
2022/01/16 08:23:34;;;;;;;190.18;70.80;;;;;;;-145.76;100.00;65039.31;4908954;28;20059;-73
2022/01/16 08:26:01;;;;;;;193.43;71.38;;;;;;;-145.76;100.00;65039.31;4924915;28;20039;-74
2022/01/16 08:28:27;;;;;;;174.18;67.35;;;;;;;-145.76;100.00;65039.31;4910225;28;21114;-72
2022/01/16 08:30:52;;;;;;;183.02;71.20;;;;;;;-145.76;100.00;65039.31;4907016;28;20038;-73
2022/01/16 08:33:18;;;;;;;179.85;70.43;;;;;;;-145.76;100.00;65039.31;4920996;28;20480;-72
2022/01/16 08:35:43;;;;;;;169.50;67.90;;;;;;;-145.76;100.00;65039.31;4911458;28;20162;-73
2022/01/16 08:38:09;;;;;;;182.43;67.80;;;;;;;-145.76;100.00;65039.31;4923381;28;20064;-76
2022/01/16 08:40:35;;;;;;;167.25;64.85;;;;;;;-145.76;100.00;65039.31;4910536;28;21200;-72
2022/01/16 08:43:07;;;;;;;146.15;62.25;;;;;;;-145.76;100.00;65039.31;4924645;28;20046;-73
2022/01/16 08:45:33;;;;;;;155.52;65.43;;;;;;;-145.76;100.00;65039.31;4920917;28;20512;-73
2022/01/16 08:47:58;;;;;;;147.68;63.13;;;;;;;-145.76;100.00;65039.31;4917251;28;20055;-74
2022/01/16 08:50:23;;;;;;;146.00;62.65;;;;;;;-145.76;100.00;65039.31;4927436;28;20034;-73
2022/01/16 08:52:49;;;;;;;153.90;64.43;;;;;;;-145.76;100.00;65039.31;4913965;28;20062;-74
2022/01/16 08:55:14;;;;;;;137.40;62.58;;;;;;;-145.76;100.00;65039.31;4911392;28;20071;-74
2022/01/16 08:57:40;;;;;;;140.45;61.35;;;;;;;-145.76;100.00;65039.31;4914060;28;20058;-75
2022/01/16 09:00:07;;;;;;;141.07;60.90;;;;;;;-145.76;100.00;65039.31;4895501;28;20145;-72
2022/01/16 09:02:33;;;;;;;126.97;58.42;;;;;;;-145.76;100.00;65039.31;4939081;28;20067;-73
2022/01/16 09:04:58;;;;;;;122.78;57.42;;;;;;;-145.76;100.00;65039.31;4907752;28;20045;-73
2022/01/16 09:07:24;;;;;;;130.93;57.80;;;;;;;-145.76;100.00;65039.31;4924740;28;20042;-73
2022/01/16 09:09:49;;;;;;;111.30;55.95;;;;;;;-145.76;100.00;65039.31;4921131;28;20675;-74
2022/01/16 09:12:15;;;;;;;109.63;55.67;;;;;;;-145.76;100.00;65039.31;4916644;28;20411;-73
2022/01/16 09:14:40;;;;;;;94.43;51.47;;;;;;;-145.76;100.00;65039.31;4925133;28;20082;-74
2022/01/16 09:17:06;;;;;;;101.20;51.13;;;;;;;-145.76;100.00;65039.31;4910918;28;20577;-73
2022/01/16 09:19:32;;;;;;;96.32;51.80;;;;;;;-145.76;100.00;65039.31;4923421;28;20035;-73
2022/01/16 09:21:58;;;;;;;100.40;50.42;;;;;;;-145.76;100.00;65039.31;4919555;28;20093;-73
2022/01/16 09:24:23;;;;;;;94.88;48.47;;;;;;;-145.76;100.00;65039.31;4917163;28;22604;-74
2022/01/16 09:26:50;;;;;;;92.80;47.45;;;;;;;-145.76;100.00;65039.31;4924898;28;20141;-74
2022/01/16 09:29:15;;;;;;;84.80;46.60;;;;;;;-145.76;100.00;65039.31;4907962;28;21498;-75
2022/01/16 09:31:41;;;;;;;89.75;46.85;;;;;;;-145.76;100.00;65039.31;4921755;28;20039;-72
2022/01/16 09:34:06;;;;;;;87.43;47.10;;;;;;;-145.76;100.00;65039.31;4916473;28;20761;-74
2022/01/16 09:36:32;;;;;;;82.88;46.58;;;;;;;-145.76;100.00;65039.31;4913871;28;20050;-72
2022/01/16 09:38:57;;;;;;;92.45;47.08;;;;;;;-145.76;100.00;65039.31;4922386;28;20038;-75
2022/01/16 09:41:23;;;;;;;83.72;46.50;;;;;;;-145.76;100.00;65039.31;4908323;28;20066;-72
2022/01/16 09:43:48;;;;;;;96.25;46.60;;;;;;;-145.76;100.00;65039.31;4923830;28;20117;-73
2022/01/16 09:46:14;;;;;;;85.85;44.75;;;;;;;-145.76;100.00;65039.31;4902727;28;20102;-72
2022/01/16 09:48:39;;;;;;;77.25;43.67;;;;;;;-145.76;100.00;65039.31;4916254;28;20043;-73
2022/01/16 09:51:06;;;;;;;83.68;43.80;;;;;;;-145.76;100.00;65039.31;4926263;28;20031;-73
2022/01/16 09:53:31;;;;;;;80.07;43.47;;;;;;;-145.76;100.00;65039.31;4907742;28;20618;-74
2022/01/16 09:55:57;;;;;;;73.07;42.97;;;;;;;-145.76;100.00;65039.31;4924330;28;20038;-73
2022/01/16 09:58:22;;;;;;;72.75;43.05;;;;;;;-145.76;100.00;65039.31;4919259;28;20043;-72
2022/01/16 10:00:49;;;;;;;77.80;42.63;;;;;;;-145.76;100.00;65039.31;4912938;28;20470;-72
2022/01/16 10:03:46;;;;;;;79.32;42.22;;;;;;;-145.76;100.00;65039.31;4920812;28;20073;-73
2022/01/16 10:06:15;;;;;;;76.65;43.42;;;;;;;-145.76;100.00;65039.31;4909502;28;20130;-73
2022/01/16 10:08:42;;;;;;;77.45;43.80;;;;;;;-145.76;100.00;65039.31;4923301;28;20574;-73
2022/01/16 10:11:28;;;;;;;83.07;46.13;;;;;;;-145.76;100.00;65039.31;4910223;28;20381;-73
2022/01/16 10:14:01;;;;;;;77.22;43.80;;;;;;;-145.76;100.00;65039.31;4922346;28;22619;-73
2022/01/16 10:16:35;;;;;;;80.35;45.58;;;;;;;-145.76;100.00;65039.31;4919539;28;20043;-73
2022/01/16 10:19:01;;;;;;;88.90;47.15;;;;;;;-145.76;100.00;65039.31;4914044;28;20603;-73
2022/01/16 10:21:40;;;;;;;75.10;42.55;;;;;;;-145.76;100.00;65039.31;4925623;28;20546;-73
2022/01/16 10:24:16;;;;;;;72.40;42.58;;;;;;;-145.76;100.00;65039.31;4908620;28;20891;-74
2022/01/16 10:26:41;;;;;;;71.40;43.13;;;;;;;-145.76;100.00;65039.31;4923807;28;20027;-76
2022/01/16 10:29:07;;;;;;;70.68;40.88;;;;;;;-145.76;100.00;65039.31;4909427;28;20058;-72
2022/01/16 10:31:32;;;;;;;76.00;41.70;;;;;;;-145.76;100.00;65039.31;4924938;28;20046;-72
2022/01/16 10:33:58;;;;;;;77.60;38.83;;;;;;;-145.76;100.00;65039.31;4925049;28;20038;-72
2022/01/16 10:36:35;;;;;;;67.32;41.00;;;;;;;-145.76;100.00;65039.31;4894697;28;20042;-72
2022/01/16 10:39:11;;;;;;;65.00;38.78;;;;;;;-145.76;100.00;65039.31;4942685;28;20589;-73
2022/01/16 10:41:36;;;;;;;72.68;39.30;;;;;;;-145.76;100.00;65039.31;4910086;28;20081;-73
2022/01/16 10:44:02;;;;;;;66.65;34.95;;;;;;;-145.76;100.00;65039.31;4909777;28;20031;-73
2022/01/16 10:46:27;;;;;;;57.85;35.47;;;;;;;-145.76;100.00;65039.31;4919925;28;20132;-74
2022/01/16 10:49:13;;;;;;;67.75;36.28;;;;;;;-145.76;100.00;65039.31;4916402;28;20047;-74
2022/01/16 10:51:38;;;;;;;55.63;34.83;;;;;;;-145.76;100.00;65039.31;4925545;28;20053;-74
2022/01/16 10:54:49;;;;;;;51.95;32.78;;;;;;;-145.76;100.00;65039.31;4911412;28;20051;-74
2022/01/16 10:57:21;;;;;;;65.28;33.38;;;;;;;-145.76;100.00;65039.31;4928380;28;20054;-74
2022/01/16 10:59:47;;;;;;;56.17;32.22;;;;;;;-145.76;100.00;65039.31;4911571;28;20138;-74
2022/01/16 11:02:12;;;;;;;54.65;31.92;;;;;;;-145.76;100.00;65039.31;4924402;28;20037;-73
2022/01/16 11:04:38;;;;;;;51.67;31.35;;;;;;;-145.76;100.00;65039.31;4918583;28;20129;-74
2022/01/16 11:07:05;;;;;;;63.78;30.40;;;;;;;-145.76;100.00;65039.31;4918140;28;20058;-73
2022/01/16 11:09:31;;;;;;;59.78;29.23;;;;;;;-145.76;100.00;65039.31;4926670;28;23991;-73
2022/01/16 11:11:59;;;;;;;47.53;27.45;;;;;;;-145.76;100.00;65039.31;4914663;28;20089;-74
2022/01/16 11:14:28;;;;;;;60.35;30.08;;;;;;;-145.76;100.00;65039.31;4933935;28;20038;-75
2022/01/16 11:16:57;;;;;;;50.60;27.45;;;;;;;-145.76;100.00;65039.31;4905213;28;20047;-75
2022/01/16 11:19:25;;;;;;;49.30;29.30;;;;;;;-145.76;100.00;65039.31;4916900;28;20048;-75
2022/01/16 11:21:54;;;;;;;55.00;26.75;;;;;;;-145.76;100.00;65039.31;4926195;28;20402;-74
2022/01/16 11:24:33;;;;;;;44.05;25.42;;;;;;;-145.76;100.00;65039.31;4908966;28;20054;-74
2022/01/16 11:26:59;;;;;;;43.47;25.35;;;;;;;-145.76;100.00;65039.31;4925381;28;23728;-72
2022/01/16 11:29:27;;;;;;;53.70;27.17;;;;;;;-145.76;100.00;65039.31;4912975;28;20136;-73
2022/01/16 11:31:55;;;;;;;44.67;24.38;;;;;;;-145.76;100.00;65039.31;4926333;28;20031;-73
2022/01/16 11:34:20;;;;;;;50.28;25.98;;;;;;;-145.76;100.00;65039.31;4925030;28;20082;-73